Time;durP1;ratioP1;P1;durP2;ratioP2;P2;SDS_P1;SDS_P2;PMS_P1;PMS_P2;Temp;Humidity;BMP_temperature;BMP_pressure;BME280_temperature;BME280_humidity;BME280_pressure;Samples;Min_cycle;Max_cycle;Signal;HPM_P1;HPM_P2
2022/06/01 00:01:48;;;;;;;2.38;0.60;;;19.20;58.70;;;;;;4955113;29;20054;-69
2022/06/01 00:04:14;;;;;;;6.00;1.10;;;19.20;58.80;;;;;;4954753;29;20023;-69
2022/06/01 00:06:40;;;;;;;1.95;0.68;;;19.20;58.90;;;;;;4953893;29;20046;-69
2022/06/01 00:09:06;;;;;;;0.80;0.57;;;19.20;58.90;;;;;;4953747;29;20494;-69
2022/06/01 00:11:32;;;;;;;1.23;0.63;;;19.20;58.90;;;;;;4953647;29;20071;-69
2022/06/01 00:13:58;;;;;;;0.85;0.65;;;19.20;58.90;;;;;;4953851;29;20038;-69
2022/06/01 00:16:24;;;;;;;0.43;0.43;;;19.20;58.90;;;;;;4953569;29;20030;-69
2022/06/01 00:18:49;;;;;;;0.45;0.43;;;19.20;58.90;;;;;;4954559;29;20031;-69
2022/06/01 00:21:15;;;;;;;1.80;0.52;;;19.20;58.90;;;;;;4953524;29;20031;-69
2022/06/01 00:23:41;;;;;;;1.92;0.50;;;19.20;59.00;;;;;;4954736;29;20055;-69
2022/06/01 00:26:06;;;;;;;0.95;0.52;;;19.20;59.00;;;;;;4954861;29;20106;-69
2022/06/01 00:28:32;;;;;;;0.65;0.60;;;19.20;59.00;;;;;;4953431;29;20439;-70
2022/06/01 00:30:59;;;;;;;1.00;0.50;;;19.20;59.00;;;;;;4954530;29;20034;-69
2022/06/01 00:33:25;;;;;;;1.08;0.60;;;19.20;59.00;;;;;;4954228;29;20493;-69
2022/06/01 00:35:50;;;;;;;1.35;0.68;;;19.20;59.10;;;;;;4954612;29;20099;-69
2022/06/01 00:38:16;;;;;;;3.67;0.55;;;19.20;59.10;;;;;;4954392;29;20023;-69
2022/06/01 00:40:42;;;;;;;0.45;0.45;;;19.20;59.10;;;;;;4954436;29;20027;-69
2022/06/01 00:43:44;;;;;;;0.65;0.50;;;19.20;59.20;;;;;;4937246;29;20434;-69
2022/06/01 00:46:10;;;;;;;2.20;0.63;;;19.20;59.20;;;;;;4952635;29;20043;-69
2022/06/01 00:48:36;;;;;;;1.30;0.70;;;19.20;59.20;;;;;;4953016;29;20030;-69
2022/06/01 00:51:02;;;;;;;1.58;0.60;;;19.20;59.20;;;;;;4957408;28;20027;-69
2022/06/01 00:53:29;;;;;;;0.75;0.50;;;19.20;59.20;;;;;;4972316;28;20026;-69
2022/06/01 00:55:57;;;;;;;0.55;0.50;;;19.20;59.20;;;;;;4972463;28;20027;-69
2022/06/01 00:58:37;;;;;;;4.50;0.70;;;19.20;59.20;;;;;;4972246;28;20397;-69
2022/06/01 01:01:05;;;;;;;2.05;0.52;;;19.20;59.30;;;;;;4957790;28;20057;-69
2022/06/01 01:03:35;;;;;;;0.93;0.52;;;19.20;59.40;;;;;;4972391;28;20019;-69
2022/06/01 01:06:23;;;;;;;1.85;0.60;;;19.30;59.50;;;;;;4972430;28;20023;-68
2022/06/01 01:08:48;;;;;;;2.45;0.50;;;19.20;59.40;;;;;;4972508;28;20015;-69
2022/06/01 01:11:15;;;;;;;0.60;0.60;;;19.30;59.40;;;;;;4960052;28;20039;-69
2022/06/01 01:13:42;;;;;;;0.65;0.45;;;19.20;59.90;;;;;;4976159;28;20469;-69
2022/06/01 01:16:10;;;;;;;1.05;0.57;;;19.30;59.30;;;;;;4976231;28;20077;-69
2022/06/01 01:18:36;;;;;;;0.93;0.60;;;19.20;59.30;;;;;;4976223;28;20092;-69
2022/06/01 01:21:26;;;;;;;1.15;0.50;;;19.20;59.30;;;;;;4960179;28;20474;-69
2022/06/01 01:24:18;;;;;;;0.47;0.47;;;19.20;59.30;;;;;;4977449;28;20493;-69
2022/06/01 01:26:48;;;;;;;1.45;0.45;;;19.30;59.20;;;;;;4977492;28;20031;-69
2022/06/01 01:29:14;;;;;;;1.08;0.60;;;19.20;59.20;;;;;;4960427;28;20033;-69
2022/06/01 01:31:39;;;;;;;1.00;0.60;;;19.30;59.20;;;;;;4976878;28;20035;-69
2022/06/01 01:34:05;;;;;;;1.65;0.70;;;19.30;59.20;;;;;;4977145;28;20035;-68
2022/06/01 01:36:40;;;;;;;0.95;0.60;;;19.20;59.10;;;;;;4975573;28;20489;-69
2022/06/01 01:39:09;;;;;;;3.28;0.50;;;19.30;59.20;;;;;;4959886;28;20097;-69
2022/06/01 01:41:44;;;;;;;1.75;0.50;;;19.30;59.20;;;;;;4960022;28;20058;-68
2022/06/01 01:44:17;;;;;;;1.60;0.60;;;19.30;59.20;;;;;;4976745;28;20027;-68
2022/06/01 01:46:47;;;;;;;0.65;0.52;;;19.30;59.10;;;;;;4975493;28;20043;-69
2022/06/01 01:49:13;;;;;;;0.70;0.60;;;19.30;59.10;;;;;;4975793;28;20046;-68
2022/06/01 01:51:39;;;;;;;0.50;0.50;;;19.30;59.20;;;;;;4975326;28;20022;-69
2022/06/01 01:54:08;;;;;;;0.73;0.60;;;19.30;59.10;;;;;;4975699;28;20078;-69
2022/06/01 01:57:03;;;;;;;0.57;0.50;;;19.30;59.10;;;;;;4975646;28;20033;-68
2022/06/01 02:00:06;;;;;;;1.58;0.47;;;19.30;59.10;;;;;;4976205;28;20030;-68
2022/06/01 02:02:35;;;;;;;0.93;0.60;;;19.30;59.10;;;;;;4958213;28;20031;-69
2022/06/01 02:08:02;;;;;;;1.15;0.73;;;19.30;59.10;;;;;;4974442;28;20433;-69
2022/06/01 02:13:12;;;;;;;0.95;0.50;;;19.30;59.20;;;;;;4960550;28;20034;-69
2022/06/01 02:15:39;;;;;;;0.93;0.60;;;19.30;59.10;;;;;;4974249;28;20031;-69
2022/06/01 02:18:17;;;;;;;1.48;0.70;;;19.30;59.10;;;;;;4958065;28;20490;-69
2022/06/01 02:20:52;;;;;;;0.50;0.50;;;19.30;59.10;;;;;;4957594;28;20049;-68
2022/06/01 02:23:18;;;;;;;0.50;0.40;;;19.30;59.20;;;;;;4957872;28;20035;-69
2022/06/01 02:25:44;;;;;;;0.77;0.47;;;19.20;59.10;;;;;;4958033;28;20053;-69
2022/06/01 02:28:10;;;;;;;0.95;0.50;;;19.30;59.20;;;;;;4957601;28;20031;-69
2022/06/01 02:30:40;;;;;;;0.43;0.40;;;19.20;59.20;;;;;;4957890;28;20042;-69
2022/06/01 02:33:08;;;;;;;0.70;0.43;;;19.20;59.20;;;;;;4957901;28;20050;-69
2022/06/01 02:35:36;;;;;;;1.50;0.60;;;19.30;59.20;;;;;;4957999;28;20042;-69
2022/06/01 02:38:02;;;;;;;0.50;0.50;;;19.20;59.20;;;;;;4974876;28;20026;-69
2022/06/01 02:40:29;;;;;;;0.77;0.50;;;19.20;59.10;;;;;;4958403;28;20398;-69
2022/06/01 02:42:54;;;;;;;0.60;0.50;;;19.20;59.20;;;;;;4975624;28;20025;-68
2022/06/01 02:45:25;;;;;;;1.80;0.90;;;19.20;59.20;;;;;;4975679;28;20141;-69
2022/06/01 02:47:52;;;;;;;0.55;0.55;;;19.20;59.20;;;;;;4975764;28;20039;-69
2022/06/01 02:50:23;;;;;;;0.50;0.50;;;19.20;59.30;;;;;;4942666;28;20449;-69
2022/06/01 02:52:48;;;;;;;1.77;0.52;;;19.20;59.20;;;;;;4975352;28;20069;-69
2022/06/01 02:55:14;;;;;;;0.65;0.50;;;19.20;59.30;;;;;;4974617;28;20034;-69
2022/06/01 02:57:41;;;;;;;1.83;0.60;;;19.20;59.30;;;;;;4973928;28;20425;-69
2022/06/01 03:00:17;;;;;;;5.95;0.60;;;19.20;59.30;;;;;;4974253;28;20057;-69
2022/06/01 03:02:46;;;;;;;0.73;0.40;;;19.20;59.40;;;;;;4959083;28;20034;-69
2022/06/01 03:05:13;;;;;;;1.10;0.50;;;19.20;59.40;;;;;;4975659;28;20023;-69
2022/06/01 03:07:38;;;;;;;1.08;0.60;;;19.20;59.40;;;;;;4973957;28;20046;-69
2022/06/01 03:10:04;;;;;;;0.50;0.40;;;19.20;59.40;;;;;;4975450;28;20104;-69
2022/06/01 03:12:30;;;;;;;0.75;0.70;;;19.20;59.50;;;;;;4957943;28;20034;-69
2022/06/01 03:14:56;;;;;;;0.80;0.40;;;19.20;59.50;;;;;;4975368;28;20027;-69
2022/06/01 03:17:21;;;;;;;1.15;0.77;;;19.20;59.50;;;;;;4975241;28;20113;-69
2022/06/01 03:19:47;;;;;;;0.98;0.57;;;19.20;59.50;;;;;;4974894;28;20124;-68
2022/06/01 03:22:12;;;;;;;0.40;0.40;;;19.20;59.50;;;;;;4975143;28;20074;-69
2022/06/01 03:24:38;;;;;;;0.65;0.40;;;19.20;59.50;;;;;;4975332;28;20054;-69
2022/06/01 03:27:04;;;;;;;0.70;0.32;;;19.20;59.50;;;;;;4974851;28;20106;-69
2022/06/01 03:29:30;;;;;;;3.63;0.60;;;19.20;59.50;;;;;;4973737;28;20081;-68
2022/06/01 03:31:55;;;;;;;0.80;0.50;;;19.20;59.50;;;;;;4974925;28;20034;-69
2022/06/01 03:34:22;;;;;;;0.55;0.45;;;19.20;59.50;;;;;;4974942;28;20022;-69
2022/06/01 03:36:48;;;;;;;0.60;0.50;;;19.20;59.50;;;;;;4973709;28;20105;-69
2022/06/01 03:39:14;;;;;;;1.08;0.60;;;19.20;59.50;;;;;;4974682;28;20105;-69
2022/06/01 03:41:39;;;;;;;0.43;0.40;;;19.20;59.50;;;;;;4974444;28;20082;-69
2022/06/01 03:46:52;;;;;;;0.90;0.32;;;19.20;59.60;;;;;;4974646;28;20062;-69
2022/06/01 03:49:18;;;;;;;0.45;0.40;;;19.20;59.60;;;;;;4974601;28;20031;-69
2022/06/01 03:51:44;;;;;;;2.40;0.50;;;19.20;59.80;;;;;;4973154;28;20028;-69
2022/06/01 03:54:09;;;;;;;0.45;0.40;;;19.20;59.80;;;;;;4973495;28;20116;-69
2022/06/01 03:56:35;;;;;;;0.52;0.40;;;19.20;59.70;;;;;;4974287;28;20031;-69
2022/06/01 03:59:01;;;;;;;0.50;0.40;;;19.20;59.60;;;;;;4965134;28;20075;-69
2022/06/01 04:01:27;;;;;;;0.50;0.40;;;19.20;59.70;;;;;;4955368;29;20098;-69
2022/06/01 04:03:52;;;;;;;1.25;0.57;;;19.20;59.60;;;;;;4954939;29;20020;-69
2022/06/01 04:06:19;;;;;;;0.80;0.40;;;19.20;59.70;;;;;;4955036;29;20031;-69
2022/06/01 04:08:44;;;;;;;1.02;0.50;;;19.20;59.60;;;;;;4937653;29;20426;-69
2022/06/01 04:11:10;;;;;;;1.00;0.50;;;19.20;59.60;;;;;;4953504;29;20039;-69
2022/06/01 04:13:36;;;;;;;2.58;0.70;;;19.20;59.60;;;;;;4954906;29;20030;-69
2022/06/01 04:16:02;;;;;;;0.40;0.40;;;19.20;59.70;;;;;;4955168;29;20034;-69
2022/06/01 04:18:27;;;;;;;0.40;0.40;;;19.20;60.60;;;;;;4953838;29;20034;-69
2022/06/01 04:20:53;;;;;;;0.85;0.40;;;19.20;59.60;;;;;;4953487;29;20035;-69
2022/06/01 04:23:19;;;;;;;0.77;0.50;;;19.20;59.70;;;;;;4954838;29;20039;-69
2022/06/01 04:25:44;;;;;;;1.42;0.57;;;19.20;59.70;;;;;;4953450;29;20034;-69
2022/06/01 04:28:10;;;;;;;2.13;0.60;;;19.20;59.70;;;;;;4954811;29;20102;-69
2022/06/01 04:30:35;;;;;;;1.00;0.77;;;19.20;59.70;;;;;;4954664;29;20031;-69
2022/06/01 04:33:01;;;;;;;0.50;0.47;;;19.20;59.70;;;;;;4954755;29;20122;-69
2022/06/01 04:35:27;;;;;;;0.80;0.50;;;19.20;59.70;;;;;;4953544;29;20486;-69
2022/06/01 04:37:53;;;;;;;0.70;0.50;;;19.20;59.70;;;;;;4954442;29;20027;-69
2022/06/01 04:40:21;;;;;;;1.95;0.50;;;19.20;59.70;;;;;;4954391;29;20070;-69
2022/06/01 04:42:47;;;;;;;0.95;0.60;;;19.20;59.70;;;;;;4953175;29;20486;-69
2022/06/01 04:45:14;;;;;;;0.93;0.50;;;19.20;59.70;;;;;;4952735;28;20107;-69
2022/06/01 04:47:40;;;;;;;0.30;0.30;;;19.20;59.70;;;;;;4954376;29;20034;-69
2022/06/01 04:50:06;;;;;;;1.30;0.40;;;19.20;59.70;;;;;;4953358;29;20102;-69
2022/06/01 04:52:32;;;;;;;0.82;0.45;;;19.20;59.80;;;;;;4969313;28;20046;-69
2022/06/01 04:54:57;;;;;;;1.60;0.50;;;19.20;59.70;;;;;;4973821;28;20406;-69
2022/06/01 04:57:23;;;;;;;0.73;0.57;;;19.10;59.70;;;;;;4973791;28;20485;-69
2022/06/01 04:59:48;;;;;;;0.50;0.40;;;19.20;59.80;;;;;;4956036;28;20043;-69
2022/06/01 05:02:15;;;;;;;1.23;0.50;;;19.10;59.70;;;;;;4973746;28;20485;-69
2022/06/01 05:04:40;;;;;;;0.63;0.63;;;19.10;59.80;;;;;;4972319;28;20034;-69
2022/06/01 05:07:06;;;;;;;1.08;0.50;;;19.20;59.90;;;;;;4973375;28;20119;-69
2022/06/01 05:09:32;;;;;;;0.68;0.40;;;19.10;59.80;;;;;;4972365;28;20050;-69
2022/06/01 05:11:57;;;;;;;0.60;0.40;;;19.10;59.80;;;;;;4973473;28;20026;-69
2022/06/01 05:14:23;;;;;;;0.88;0.50;;;19.10;59.90;;;;;;4973558;28;20038;-69
2022/06/01 05:16:49;;;;;;;0.38;0.38;;;19.10;59.80;;;;;;4956093;28;20106;-69
2022/06/01 05:19:14;;;;;;;1.85;0.50;;;19.10;59.80;;;;;;4973428;28;20035;-68
2022/06/01 05:21:40;;;;;;;0.60;0.60;;;19.10;59.80;;;;;;4973226;28;20031;-69
2022/06/01 05:24:06;;;;;;;0.65;0.50;;;19.10;59.90;;;;;;4973479;28;20026;-69
2022/06/01 05:26:32;;;;;;;0.55;0.43;;;19.10;59.90;;;;;;4972308;28;20019;-68
2022/06/01 05:28:57;;;;;;;0.45;0.45;;;19.10;59.90;;;;;;4973213;28;20405;-68
2022/06/01 05:31:23;;;;;;;0.50;0.50;;;19.10;60.00;;;;;;4973324;28;20023;-68
2022/06/01 05:33:49;;;;;;;3.15;0.65;;;19.10;59.90;;;;;;4971943;28;20049;-68
2022/06/01 05:36:15;;;;;;;0.65;0.50;;;19.10;60.00;;;;;;4971463;28;20027;-69
2022/06/01 05:38:42;;;;;;;0.60;0.50;;;19.10;59.90;;;;;;4967736;28;20412;-68
2022/06/01 05:41:07;;;;;;;0.80;0.40;;;19.10;60.00;;;;;;4970720;28;20442;-69
2022/06/01 05:43:34;;;;;;;2.83;0.50;;;19.10;60.00;;;;;;4969483;28;20026;-69
2022/06/01 05:45:59;;;;;;;0.30;0.30;;;19.10;60.00;;;;;;4969378;28;20093;-69
2022/06/01 05:48:25;;;;;;;0.32;0.32;;;19.10;60.10;;;;;;4953609;28;20031;-69
2022/06/01 05:50:51;;;;;;;0.77;0.50;;;19.10;60.00;;;;;;4970471;28;20030;-69
2022/06/01 05:53:16;;;;;;;1.17;0.63;;;19.10;60.20;;;;;;4970758;28;20038;-68
2022/06/01 05:55:42;;;;;;;0.75;0.47;;;19.10;60.10;;;;;;4970656;28;20019;-68
2022/06/01 05:58:27;;;;;;;1.60;0.68;;;19.10;60.20;;;;;;4973525;28;20050;-69
2022/06/01 06:00:53;;;;;;;6.80;1.10;;;19.10;57.20;;;;;;4989403;28;20019;-69
2022/06/01 06:03:20;;;;;;;3.10;1.27;;;18.80;56.30;;;;;;4975341;28;20037;-68
2022/06/01 06:08:30;;;;;;;2.08;0.82;;;18.20;55.50;;;;;;4975476;28;20474;-69
2022/06/01 06:10:56;;;;;;;1.90;1.02;;;18.10;55.60;;;;;;4976451;28;20097;-68
2022/06/01 06:13:21;;;;;;;5.03;1.30;;;18.00;55.80;;;;;;4976461;28;20081;-70
2022/06/01 06:15:48;;;;;;;2.20;1.02;;;17.90;56.00;;;;;;4976298;28;20093;-69
2022/06/01 06:18:14;;;;;;;2.75;0.95;;;17.90;56.20;;;;;;4976323;28;20054;-69
2022/06/01 06:20:43;;;;;;;2.63;1.10;;;17.90;56.30;;;;;;4975047;28;20027;-69
2022/06/01 06:23:10;;;;;;;1.92;1.00;;;17.90;56.60;;;;;;4974956;28;20027;-69
2022/06/01 06:25:36;;;;;;;3.75;1.40;;;17.90;56.50;;;;;;4974037;28;20026;-69
2022/06/01 06:28:01;;;;;;;1.30;0.90;;;17.80;56.70;;;;;;4974656;28;20556;-69
2022/06/01 06:30:27;;;;;;;2.92;1.02;;;17.70;57.00;;;;;;4974655;28;20490;-69
2022/06/01 06:32:53;;;;;;;2.83;1.17;;;17.80;57.00;;;;;;4974429;28;20023;-69
2022/06/01 06:35:21;;;;;;;3.25;1.10;;;17.80;56.90;;;;;;4973767;28;20026;-69
2022/06/01 06:37:46;;;;;;;5.22;1.00;;;17.80;56.90;;;;;;4975728;28;20058;-69
2022/06/01 06:40:12;;;;;;;2.40;1.13;;;17.70;57.00;;;;;;4974458;28;20058;-69
2022/06/01 06:42:38;;;;;;;3.25;1.10;;;17.60;57.20;;;;;;4974833;28;20031;-69
2022/06/01 06:45:04;;;;;;;1.58;1.05;;;17.60;57.30;;;;;;4974939;28;20022;-69
2022/06/01 06:47:32;;;;;;;3.95;1.13;;;17.60;57.40;;;;;;4974428;28;20055;-69
2022/06/01 06:49:58;;;;;;;2.17;1.15;;;17.60;57.50;;;;;;4975273;28;20026;-69
2022/06/01 06:52:23;;;;;;;2.22;1.00;;;17.50;57.70;;;;;;4974553;28;20045;-69
2022/06/01 06:54:49;;;;;;;4.60;1.20;;;17.50;57.60;;;;;;4972270;28;20023;-69
2022/06/01 06:57:15;;;;;;;3.33;1.20;;;17.50;57.80;;;;;;4975712;28;20102;-69
2022/06/01 06:59:41;;;;;;;2.15;1.20;;;17.50;58.00;;;;;;4974037;28;20031;-69
2022/06/01 07:02:06;;;;;;;2.30;1.05;;;17.50;57.90;;;;;;4975452;28;20023;-69
2022/06/01 07:04:32;;;;;;;2.83;1.50;;;17.40;58.00;;;;;;4974335;28;20023;-69
2022/06/01 07:06:58;;;;;;;4.00;1.10;;;17.40;57.90;;;;;;4975004;28;20055;-69
2022/06/01 07:09:23;;;;;;;2.60;1.00;;;17.40;58.00;;;;;;4975318;28;20125;-69
2022/06/01 07:11:49;;;;;;;2.30;1.17;;;17.40;58.10;;;;;;4975189;28;20477;-69
2022/06/01 07:14:15;;;;;;;1.80;1.10;;;17.30;58.00;;;;;;4975251;28;20422;-69
2022/06/01 07:16:40;;;;;;;1.58;1.10;;;17.40;58.00;;;;;;4975447;28;20110;-69
2022/06/01 07:19:08;;;;;;;1.13;1.05;;;17.40;58.00;;;;;;4975048;28;20552;-69
2022/06/01 07:21:36;;;;;;;3.22;1.10;;;17.40;58.00;;;;;;4974006;28;20393;-69
2022/06/01 07:24:04;;;;;;;1.23;0.93;;;17.40;58.00;;;;;;4958264;28;20019;-69
2022/06/01 07:26:38;;;;;;;4.57;0.90;;;17.40;57.40;;;;;;4974069;28;20114;-69
2022/06/01 07:29:04;;;;;;;4.63;1.15;;;17.40;57.40;;;;;;4973710;28;20026;-69
2022/06/01 07:31:30;;;;;;;2.55;1.00;;;17.40;57.20;;;;;;4973849;28;20027;-69
2022/06/01 07:33:56;;;;;;;2.25;1.00;;;17.40;56.90;;;;;;4973646;28;20102;-69
2022/06/01 07:36:21;;;;;;;5.38;0.90;;;17.40;56.80;;;;;;4973861;28;20031;-69
2022/06/01 07:44:27;;;;;;;3.42;0.88;;;17.30;56.30;;;;;;4974988;28;20053;-69
2022/06/01 07:46:53;;;;;;;2.50;0.80;;;17.30;56.30;;;;;;4957058;28;20425;-69
2022/06/01 07:49:19;;;;;;;3.85;0.80;;;17.30;56.20;;;;;;4974666;28;20031;-69
2022/06/01 07:51:45;;;;;;;2.40;1.02;;;17.40;56.30;;;;;;4974620;28;20043;-69
2022/06/01 07:54:10;;;;;;;0.73;0.60;;;17.40;56.00;;;;;;4973374;28;20420;-69
2022/06/01 07:56:36;;;;;;;1.73;0.68;;;17.40;55.80;;;;;;4973414;28;20460;-70
2022/06/01 07:59:03;;;;;;;4.00;0.77;;;17.30;55.90;;;;;;4973378;28;20027;-69
2022/06/01 08:01:29;;;;;;;4.97;0.82;;;17.30;55.70;;;;;;4974253;28;20026;-69
2022/06/01 08:03:58;;;;;;;1.70;0.70;;;17.30;55.30;;;;;;4973152;28;20086;-69
2022/06/01 08:06:25;;;;;;;4.82;1.00;;;17.30;55.30;;;;;;4973154;28;20061;-69
2022/06/01 08:08:51;;;;;;;1.88;0.80;;;17.30;55.20;;;;;;4973101;28;20085;-69
2022/06/01 08:11:16;;;;;;;1.30;0.70;;;17.30;55.20;;;;;;4974200;28;20026;-69
2022/06/01 08:13:42;;;;;;;1.92;0.85;;;17.30;54.90;;;;;;4974238;28;20026;-69
2022/06/01 08:16:08;;;;;;;3.25;0.90;;;17.30;54.90;;;;;;4972784;28;20027;-69
2022/06/01 08:18:34;;;;;;;1.45;0.80;;;17.30;54.80;;;;;;4973925;28;20058;-69
2022/06/01 08:20:59;;;;;;;1.73;0.82;;;17.30;54.70;;;;;;4972308;28;20511;-69
2022/06/01 08:23:27;;;;;;;2.53;0.60;;;17.30;54.70;;;;;;4973104;28;20025;-69
2022/06/01 08:25:53;;;;;;;1.30;0.63;;;17.30;54.60;;;;;;4973859;28;20015;-69
2022/06/01 08:28:18;;;;;;;6.10;0.98;;;17.30;54.50;;;;;;4972818;28;20543;-69
2022/06/01 08:30:44;;;;;;;2.80;0.80;;;17.30;54.60;;;;;;4974179;28;20027;-69
2022/06/01 08:33:10;;;;;;;1.20;0.60;;;17.30;54.40;;;;;;4974026;28;20027;-70
2022/06/01 08:35:37;;;;;;;4.47;0.68;;;17.30;54.10;;;;;;4972828;28;20037;-69
2022/06/01 08:38:03;;;;;;;1.27;0.68;;;17.40;54.10;;;;;;4956789;28;20027;-69
2022/06/01 08:40:34;;;;;;;6.47;1.00;;;17.40;54.10;;;;;;4972573;28;20030;-69
2022/06/01 08:43:06;;;;;;;1.70;0.50;;;17.40;53.60;;;;;;4972580;28;20053;-69
2022/06/01 08:45:32;;;;;;;4.10;0.85;;;17.40;53.50;;;;;;4972174;28;20109;-69
2022/06/01 08:47:58;;;;;;;1.55;0.60;;;17.40;52.80;;;;;;4956787;28;20034;-69
2022/06/01 08:50:35;;;;;;;1.33;0.70;;;17.30;52.90;;;;;;4972595;28;20030;-69
2022/06/01 08:53:02;;;;;;;2.20;0.52;;;17.30;52.60;;;;;;4953100;29;20031;-69
2022/06/01 08:55:35;;;;;;;1.10;0.60;;;17.40;52.30;;;;;;4937705;29;20090;-69
2022/06/01 08:58:15;;;;;;;4.28;0.65;;;17.40;51.90;;;;;;4938191;29;20035;-69
2022/06/01 09:00:59;;;;;;;0.57;0.50;;;17.40;52.00;;;;;;4952932;29;20067;-69
2022/06/01 09:03:32;;;;;;;1.25;0.40;;;17.40;51.70;;;;;;4952752;28;20110;-69
2022/06/01 09:06:18;;;;;;;2.17;0.60;;;17.40;51.70;;;;;;4956641;28;20019;-69
2022/06/01 09:08:47;;;;;;;1.08;0.60;;;17.40;51.70;;;;;;4957746;28;20031;-69
2022/06/01 09:11:33;;;;;;;1.80;0.77;;;17.40;51.60;;;;;;4972454;28;20346;-69
2022/06/01 09:14:04;;;;;;;1.05;0.52;;;17.40;51.80;;;;;;4972132;28;20035;-69
2022/06/01 09:16:33;;;;;;;2.97;0.50;;;17.40;51.50;;;;;;4973498;28;20023;-69
2022/06/01 09:18:58;;;;;;;1.63;0.60;;;17.40;51.80;;;;;;4956273;28;20037;-69
2022/06/01 09:24:48;;;;;;;2.73;0.63;;;17.40;51.70;;;;;;4972675;28;20073;-69
2022/06/01 09:27:14;;;;;;;1.00;0.63;;;17.40;52.10;;;;;;4955985;28;20397;-69
2022/06/01 09:29:47;;;;;;;1.10;0.60;;;17.50;52.30;;;;;;4972063;28;20023;-69
2022/06/01 09:32:33;;;;;;;0.60;0.60;;;17.40;52.90;;;;;;4975521;28;20023;-69
2022/06/01 09:35:05;;;;;;;1.48;0.63;;;17.50;53.30;;;;;;4976961;28;20023;-69
2022/06/01 09:37:43;;;;;;;1.80;0.80;;;17.50;53.40;;;;;;4975878;28;20630;-69
2022/06/01 09:40:21;;;;;;;3.50;0.80;;;17.50;53.60;;;;;;4960969;28;20101;-69
2022/06/01 09:42:48;;;;;;;1.25;0.70;;;17.50;53.70;;;;;;4976841;28;20083;-69
2022/06/01 09:45:22;;;;;;;2.47;0.60;;;17.50;53.90;;;;;;4959651;28;20393;-69
2022/06/01 09:47:50;;;;;;;1.92;0.60;;;17.50;53.80;;;;;;4977034;28;20035;-69
2022/06/01 09:50:28;;;;;;;1.88;0.60;;;17.50;53.80;;;;;;4959943;28;20113;-69
2022/06/01 09:53:20;;;;;;;2.13;0.75;;;17.50;53.80;;;;;;4959760;28;20118;-70
2022/06/01 09:56:04;;;;;;;1.30;0.68;;;17.50;53.80;;;;;;4976511;28;20620;-69
2022/06/01 10:07:17;;;;;;;1.15;0.80;;;17.50;53.60;;;;;;4916772;29;20098;-69
2022/06/01 10:09:57;;;;;;;1.13;0.55;;;17.50;53.50;;;;;;4917010;29;20063;-69
2022/06/01 10:12:41;;;;;;;2.30;0.70;;;17.60;53.30;;;;;;4916665;29;20458;-69
2022/06/01 10:15:22;;;;;;;1.48;0.68;;;17.50;53.10;;;;;;4916804;29;20041;-69
2022/06/01 10:18:16;;;;;;;1.05;0.60;;;17.50;53.20;;;;;;4901178;29;20061;-69
2022/06/01 10:20:55;;;;;;;1.17;0.80;;;17.60;53.40;;;;;;4916223;29;20055;-69
2022/06/01 10:23:50;;;;;;;1.92;0.57;;;17.60;53.20;;;;;;4916762;29;20075;-69
2022/06/01 10:26:17;;;;;;;3.03;0.70;;;17.60;53.10;;;;;;4915281;29;20514;-69
2022/06/01 10:29:15;;;;;;;2.90;0.63;;;17.60;53.20;;;;;;4916743;29;20036;-69
2022/06/01 10:32:09;;;;;;;2.10;0.75;;;17.60;53.20;;;;;;4908365;29;20047;-69
2022/06/01 10:34:48;;;;;;;1.75;0.50;;;17.60;52.90;;;;;;4901074;29;20088;-69
2022/06/01 10:37:25;;;;;;;2.40;0.47;;;17.60;53.10;;;;;;4916470;29;20036;-69
2022/06/01 10:40:19;;;;;;;2.22;0.82;;;17.70;53.20;;;;;;4916336;29;20032;-69
2022/06/01 10:46:00;;;;;;;2.38;0.70;;;17.70;53.10;;;;;;4955409;29;20058;-69
2022/06/01 10:48:29;;;;;;;1.05;0.60;;;17.70;53.00;;;;;;4955444;29;20130;-69
2022/06/01 10:51:07;;;;;;;0.63;0.50;;;17.70;53.30;;;;;;4958367;28;20027;-69
2022/06/01 10:53:57;;;;;;;1.75;0.82;;;17.70;53.10;;;;;;4975772;28;20523;-69
2022/06/01 10:56:23;;;;;;;1.48;0.70;;;17.80;53.00;;;;;;4974086;28;20565;-69
2022/06/01 10:58:49;;;;;;;1.15;0.60;;;17.80;52.90;;;;;;4974403;28;20101;-69
2022/06/01 11:02:04;;;;;;;1.92;0.70;;;17.80;52.90;;;;;;4974342;28;20031;-69
2022/06/01 11:04:42;;;;;;;1.90;0.73;;;17.80;52.90;;;;;;4954238;29;20055;-69
2022/06/01 11:07:20;;;;;;;0.93;0.57;;;17.80;52.90;;;;;;4953912;29;20028;-69
2022/06/01 11:10:01;;;;;;;3.65;0.70;;;17.80;52.70;;;;;;4953838;29;20039;-69
2022/06/01 11:12:53;;;;;;;1.92;0.70;;;17.90;52.80;;;;;;4953968;29;20065;-69
2022/06/01 11:15:24;;;;;;;1.63;0.80;;;17.90;53.10;;;;;;4953783;29;20058;-69
2022/06/01 11:17:56;;;;;;;1.38;0.70;;;17.90;53.40;;;;;;4953877;29;20115;-69
2022/06/01 11:20:30;;;;;;;1.48;0.73;;;17.90;53.70;;;;;;4953743;29;20131;-69
2022/06/01 11:23:04;;;;;;;1.38;0.90;;;17.90;53.50;;;;;;4953688;29;20468;-69
2022/06/01 11:25:50;;;;;;;2.90;0.73;;;18.00;53.60;;;;;;4953514;29;20573;-69
2022/06/01 11:28:27;;;;;;;3.55;1.00;;;18.00;53.80;;;;;;4953750;29;20122;-69
2022/06/01 11:31:05;;;;;;;2.50;0.80;;;18.00;53.80;;;;;;4953803;29;20486;-69
2022/06/01 11:33:53;;;;;;;1.90;0.60;;;17.90;53.60;;;;;;4953406;29;20469;-69
2022/06/01 11:36:32;;;;;;;2.10;0.77;;;18.00;53.70;;;;;;4955350;29;20434;-70
2022/06/01 11:39:14;;;;;;;0.98;0.50;;;18.00;53.80;;;;;;4939068;29;20024;-69
2022/06/01 11:41:52;;;;;;;1.77;0.63;;;18.00;53.80;;;;;;4939355;29;20027;-69
2022/06/01 11:44:30;;;;;;;2.80;0.85;;;18.00;53.90;;;;;;4939837;29;20023;-69
2022/06/01 11:47:00;;;;;;;0.70;0.68;;;18.00;54.00;;;;;;4954077;29;20513;-69
2022/06/01 11:49:39;;;;;;;2.30;0.70;;;18.00;54.00;;;;;;4954077;29;20063;-69
2022/06/01 11:52:23;;;;;;;3.03;0.60;;;18.10;54.00;;;;;;4966854;28;20042;-69
2022/06/01 11:55:07;;;;;;;2.10;0.90;;;18.00;54.40;;;;;;4974454;28;20034;-69
2022/06/01 11:57:47;;;;;;;1.80;0.60;;;18.10;54.10;;;;;;4974596;28;20084;-69
2022/06/01 12:00:31;;;;;;;2.45;0.70;;;18.10;54.10;;;;;;4974394;28;20102;-69
2022/06/01 12:03:00;;;;;;;1.60;0.93;;;18.10;54.00;;;;;;4974163;28;20073;-69
2022/06/01 12:05:33;;;;;;;2.10;0.70;;;18.10;53.80;;;;;;4973185;28;20019;-69
2022/06/01 12:08:07;;;;;;;2.40;0.70;;;18.10;53.80;;;;;;4973045;28;20022;-69
2022/06/01 12:10:52;;;;;;;1.83;0.50;;;18.20;53.90;;;;;;4973064;28;20102;-69
2022/06/01 12:13:25;;;;;;;1.15;0.70;;;18.20;53.90;;;;;;4957142;28;20030;-69
2022/06/01 12:16:09;;;;;;;;;;;18.10;53.90;;;;;;4973464;28;20105;-69
2022/06/01 12:18:35;;;;;;;2.95;0.80;;;18.10;55.00;;;;;;4974392;28;19906;-69
2022/06/01 12:21:21;;;;;;;3.38;0.93;;;18.20;53.70;;;;;;4956994;28;20031;-69
2022/06/01 12:28:31;;;;;;;4.22;0.60;;;18.20;53.60;;;;;;4974432;28;20085;-69
2022/06/01 12:30:06;;;;;;;1.80;0.70;;;18.20;53.50;;;;;;4962392;28;20113;-69
2022/06/01 12:32:58;;;;;;;0.70;0.68;;;18.20;53.40;;;;;;4974338;28;20081;-69
2022/06/01 12:35:31;;;;;;;1.00;0.52;;;18.20;53.40;;;;;;4973925;28;20085;-69
2022/06/01 12:38:08;;;;;;;1.08;0.60;;;18.20;53.20;;;;;;4972552;28;20026;-69
2022/06/01 12:40:34;;;;;;;1.90;0.65;;;18.20;53.20;;;;;;4972687;28;20027;-69
2022/06/01 12:43:01;;;;;;;3.05;0.73;;;18.20;53.40;;;;;;4973674;28;20027;-69
2022/06/01 12:45:37;;;;;;;1.77;0.80;;;18.20;53.40;;;;;;4956550;28;20015;-69
2022/06/01 12:48:11;;;;;;;2.15;0.60;;;18.30;53.20;;;;;;4972771;28;20069;-69
2022/06/01 12:50:58;;;;;;;0.77;0.60;;;18.30;53.20;;;;;;4973862;28;20057;-69
2022/06/01 12:53:39;;;;;;;1.38;0.60;;;18.30;53.10;;;;;;4972473;28;20027;-69
2022/06/01 12:56:11;;;;;;;2.85;0.80;;;18.30;53.10;;;;;;4972848;28;20019;-69
2022/06/01 12:58:39;;;;;;;4.35;0.70;;;18.40;53.00;;;;;;4972495;28;20477;-69
2022/06/01 13:01:05;;;;;;;1.48;0.77;;;18.40;53.00;;;;;;4973580;28;20069;-69
2022/06/01 13:03:33;;;;;;;2.20;0.70;;;18.40;53.00;;;;;;4973531;28;20070;-69
2022/06/01 13:06:01;;;;;;;0.60;0.50;;;18.40;53.10;;;;;;4975592;28;20046;-69
2022/06/01 13:08:29;;;;;;;3.10;0.80;;;18.40;52.90;;;;;;4962765;28;20027;-69
2022/06/01 13:10:54;;;;;;;3.22;0.70;;;18.40;53.10;;;;;;4978780;28;20026;-69
2022/06/01 13:13:25;;;;;;;1.50;0.63;;;18.40;52.80;;;;;;4978847;28;20027;-69
2022/06/01 13:15:55;;;;;;;0.93;0.60;;;18.50;53.00;;;;;;4963150;28;20102;-69
2022/06/01 13:18:26;;;;;;;2.70;0.93;;;18.50;53.00;;;;;;4979856;28;20031;-69
2022/06/01 13:20:55;;;;;;;2.75;0.52;;;18.50;53.00;;;;;;4979680;28;20026;-69
2022/06/01 13:23:34;;;;;;;5.40;0.80;;;18.50;52.70;;;;;;4962913;28;20047;-69
2022/06/01 13:26:03;;;;;;;2.58;0.70;;;18.50;52.70;;;;;;4980054;28;20054;-69
2022/06/01 13:28:28;;;;;;;4.20;0.55;;;18.60;52.60;;;;;;4962615;28;20489;-70
2022/06/01 13:30:56;;;;;;;1.52;0.50;;;18.60;52.40;;;;;;4978672;28;20018;-69
2022/06/01 13:33:38;;;;;;;0.93;0.50;;;18.60;52.30;;;;;;4962734;28;20177;-69
2022/06/01 13:36:25;;;;;;;1.45;0.60;;;18.60;53.00;;;;;;4978739;28;20038;-69
2022/06/01 13:38:51;;;;;;;1.02;0.60;;;18.60;52.50;;;;;;4979547;28;20041;-69
2022/06/01 13:41:22;;;;;;;3.08;0.73;;;18.70;52.70;;;;;;4979652;28;20027;-70